Time;durP1;ratioP1;P1;durP2;ratioP2;P2;SDS_P1;SDS_P2;PMS_P1;PMS_P2;Temp;Humidity;BMP_temperature;BMP_pressure;BME280_temperature;BME280_humidity;BME280_pressure;Samples;Min_cycle;Max_cycle;Signal;HPM_P1;HPM_P2
2023/09/14 00:00:45;;;;;;;1.80;1.23;;;;;;;11.55;69.51;100899.84;5105131;28;20024;-67
2023/09/14 00:03:12;;;;;;;2.47;1.30;;;;;;;11.55;69.78;100907.66;5105281;28;20051;-66
2023/09/14 00:05:48;;;;;;;3.38;1.52;;;;;;;11.43;70.01;100900.78;5105106;28;20074;-66
2023/09/14 00:08:14;;;;;;;2.35;1.35;;;;;;;11.39;70.06;100894.72;5104789;28;20498;-66
2023/09/14 00:10:40;;;;;;;1.50;1.27;;;;;;;11.40;70.10;100906.88;5105052;28;20028;-65
2023/09/14 00:13:07;;;;;;;1.70;1.20;;;;;;;11.32;70.59;100898.22;5105054;28;20020;-67
2023/09/14 00:15:33;;;;;;;1.63;1.30;;;;;;;11.32;70.70;100910.34;5104908;28;20031;-66
2023/09/14 00:17:59;;;;;;;2.83;1.17;;;;;;;11.31;70.23;100904.28;5104953;28;20331;-66
2023/09/14 00:20:27;;;;;;;1.77;1.20;;;;;;;11.32;70.56;100912.94;5105088;28;20095;-64
2023/09/14 00:22:56;;;;;;;1.35;1.20;;;;;;;11.29;70.39;100911.25;5104849;28;20051;-66
2023/09/14 00:25:22;;;;;;;2.85;1.50;;;;;;;11.28;70.21;100907.75;5104818;28;20028;-66
2023/09/14 00:27:48;;;;;;;1.90;1.35;;;;;;;11.29;70.13;100911.25;5104936;28;20031;-65
2023/09/14 00:30:14;;;;;;;2.95;1.10;;;;;;;11.30;70.23;100910.34;5104669;28;20025;-67
2023/09/14 00:32:40;;;;;;;4.35;1.60;;;;;;;11.28;70.23;100907.75;5104896;28;20028;-67
2023/09/14 00:35:09;;;;;;;2.33;0.90;;;;;;;11.29;70.32;100911.25;5104737;28;20107;-67
2023/09/14 00:37:35;;;;;;;3.35;1.48;;;;;;;11.32;70.38;100906.03;5104584;28;20027;-67
2023/09/14 00:40:03;;;;;;;1.10;0.73;;;;;;;11.33;70.29;100910.34;5104482;28;20068;-67
2023/09/14 00:42:29;;;;;;;0.80;0.80;;;;;;;11.37;70.04;100911.22;5104816;28;20028;-66
2023/09/14 00:44:54;;;;;;;4.55;0.82;;;;;;;11.37;70.12;100917.25;5104760;28;20035;-67
2023/09/14 00:47:19;;;;;;;1.60;0.95;;;;;;;11.37;70.28;100913.81;5104694;28;20051;-67
2023/09/14 00:49:45;;;;;;;0.93;0.82;;;;;;;11.38;70.25;100911.19;5104352;28;20273;-66
2023/09/14 00:52:10;;;;;;;1.80;1.10;;;;;;;11.26;70.06;100895.66;5086279;28;20031;-66
2023/09/14 00:54:38;;;;;;;2.28;1.52;;;;;;;11.37;70.07;100912.06;5107846;28;20122;-66
2023/09/14 00:57:04;;;;;;;0.95;0.85;;;;;;;11.36;70.05;100910.34;5108687;28;20058;-66
2023/09/14 00:59:30;;;;;;;1.58;0.70;;;;;;;11.36;70.24;100912.94;5108563;28;20089;-67
2023/09/14 01:01:56;;;;;;;1.10;1.02;;;;;;;11.38;70.39;100921.59;5108298;28;20020;-66
2023/09/14 01:04:21;;;;;;;0.68;0.63;;;;;;;11.34;70.25;100917.25;5108277;28;20055;-66
2023/09/14 01:06:47;;;;;;;1.55;1.33;;;;;;;11.37;70.17;100927.66;5108224;28;20048;-66
2023/09/14 01:09:12;;;;;;;6.93;0.90;;;;;;;11.39;70.36;100933.72;5108142;28;20020;-67
2023/09/14 01:11:37;;;;;;;0.55;0.55;;;;;;;11.37;70.12;100926.81;5089908;28;20066;-67
2023/09/14 01:14:19;;;;;;;3.63;1.25;;;;;;;11.41;70.51;100936.31;5107991;28;20034;-66
2023/09/14 01:16:53;;;;;;;6.97;1.40;;;;;;;11.39;70.45;100930.25;5108215;28;20022;-67
2023/09/14 01:19:44;;;;;;;3.05;1.05;;;;;;;11.41;70.28;100933.72;5108244;28;20326;-67
2023/09/14 01:22:25;;;;;;;2.30;1.23;;;;;;;11.43;70.47;100936.31;5107976;28;20027;-66
2023/09/14 01:25:02;;;;;;;1.33;1.00;;;;;;;11.39;70.44;100945.84;5108098;28;20110;-66
2023/09/14 01:27:28;;;;;;;0.70;0.70;;;;;;;11.25;70.24;100938.97;5108317;28;20050;-66
2023/09/14 01:29:57;;;;;;;1.85;1.02;;;;;;;11.26;70.44;100947.63;5107984;28;20077;-67
2023/09/14 01:32:24;;;;;;;1.27;0.80;;;;;;;11.20;70.34;100948.50;5107927;28;20024;-65
2023/09/14 01:34:49;;;;;;;1.63;1.00;;;;;;;11.16;70.67;100949.38;5107824;28;20422;-67
2023/09/14 01:37:15;;;;;;;3.80;1.15;;;;;;;11.11;70.58;100957.19;5107637;28;20024;-67
2023/09/14 01:39:41;;;;;;;4.50;1.65;;;;;;;10.97;70.56;100941.63;5107938;28;20051;-66
2023/09/14 01:42:07;;;;;;;1.10;0.90;;;;;;;11.07;70.53;100959.81;5107645;28;20088;-67
2023/09/14 01:44:33;;;;;;;2.17;1.13;;;;;;;11.00;70.67;100957.22;5107817;28;20354;-68
2023/09/14 01:46:58;;;;;;;0.80;0.77;;;;;;;10.99;70.86;100952.03;5107669;28;20083;-67
2023/09/14 01:49:24;;;;;;;1.40;1.15;;;;;;;10.96;70.85;100950.28;5107515;28;20118;-67
2023/09/14 01:51:49;;;;;;;0.60;0.60;;;;;;;10.94;70.62;100945.97;5107191;28;20242;-66
2023/09/14 01:54:15;;;;;;;1.25;0.88;;;;;;;10.92;70.77;100951.16;5085504;28;20044;-67
2023/09/14 01:56:42;;;;;;;1.30;1.00;;;;;;;10.92;70.85;100945.97;5087070;28;20024;-66
2023/09/14 01:59:07;;;;;;;4.70;0.70;;;;;;;10.94;70.79;100949.44;5087159;28;20035;-67
2023/09/14 02:01:32;;;;;;;1.05;0.80;;;;;;;10.95;70.62;100948.56;5085727;28;20020;-68
2023/09/14 02:03:58;;;;;;;1.52;1.13;;;;;;;10.96;70.83;100952.03;5086997;28;20020;-68
2023/09/14 02:06:23;;;;;;;2.53;1.13;;;;;;;10.97;70.72;100958.94;5086340;28;20020;-67
2023/09/14 02:08:48;;;;;;;1.52;1.35;;;;;;;11.00;70.75;100958.94;5086703;28;20054;-67
2023/09/14 02:11:14;;;;;;;1.25;1.02;;;;;;;10.99;70.88;100957.22;5086787;28;20021;-67
2023/09/14 02:13:40;;;;;;;0.52;0.52;;;;;;;11.01;70.75;100961.53;5086851;28;20028;-66
2023/09/14 02:16:05;;;;;;;1.20;1.10;;;;;;;11.02;70.75;100962.41;5086964;28;20039;-67
2023/09/14 02:18:31;;;;;;;1.33;0.90;;;;;;;10.99;70.97;100955.47;5086836;28;20028;-66
2023/09/14 02:20:56;;;;;;;0.80;0.75;;;;;;;10.88;70.78;100950.28;5086214;28;20020;-68
2023/09/14 02:23:22;;;;;;;1.10;0.80;;;;;;;10.94;70.76;100964.16;5085567;28;20025;-68
2023/09/14 02:25:49;;;;;;;0.80;0.77;;;;;;;10.80;70.93;100938.19;5086512;28;20489;-67
2023/09/14 02:28:15;;;;;;;1.00;0.88;;;;;;;10.89;70.83;100951.16;5086679;28;20031;-66
2023/09/14 02:30:41;;;;;;;0.73;0.73;;;;;;;10.89;70.95;100959.81;5085005;28;20192;-67
2023/09/14 02:33:07;;;;;;;0.80;0.80;;;;;;;10.89;71.03;100958.97;5086517;28;20023;-67
2023/09/14 02:35:34;;;;;;;0.65;0.63;;;;;;;10.90;70.81;100958.94;5086308;28;20028;-66
2023/09/14 02:37:59;;;;;;;1.77;0.85;;;;;;;10.86;70.91;100953.75;5085988;28;20025;-67
2023/09/14 02:40:25;;;;;;;0.70;0.70;;;;;;;10.88;71.04;100955.47;5086164;28;20028;-67
2023/09/14 02:42:50;;;;;;;2.05;0.95;;;;;;;10.84;70.85;100943.38;5086233;28;20020;-66
2023/09/14 02:45:16;;;;;;;1.20;0.80;;;;;;;10.86;70.93;100946.81;5086151;28;20461;-65
2023/09/14 02:47:41;;;;;;;0.60;0.60;;;;;;;10.81;71.09;100948.56;5086107;28;20088;-66
2023/09/14 02:50:06;;;;;;;1.58;0.95;;;;;;;10.72;70.86;100941.63;5085857;28;20072;-66
2023/09/14 02:52:32;;;;;;;1.17;0.93;;;;;;;10.65;70.94;100937.31;5085797;28;20017;-67
2023/09/14 02:54:59;;;;;;;0.95;0.90;;;;;;;10.57;71.03;100932.13;5101765;28;20078;-66
2023/09/14 02:57:24;;;;;;;1.08;1.00;;;;;;;10.59;71.31;100939.94;5106093;28;20483;-66
2023/09/14 02:59:53;;;;;;;4.80;1.20;;;;;;;10.55;71.28;100941.66;5106170;28;20024;-67
2023/09/14 03:02:18;;;;;;;1.05;0.75;;;;;;;10.51;71.03;100945.97;5106071;28;20026;-66
2023/09/14 03:04:44;;;;;;;4.85;0.85;;;;;;;10.48;71.21;100942.53;5106021;28;20024;-67
2023/09/14 03:07:09;;;;;;;0.95;0.80;;;;;;;10.43;71.52;100946.81;5105812;28;20059;-67
2023/09/14 03:09:34;;;;;;;1.25;0.90;;;;;;;10.45;71.56;100958.06;5105989;28;20024;-68
2023/09/14 03:12:00;;;;;;;0.70;0.70;;;;;;;10.42;71.51;100964.09;5105859;28;20027;-67
2023/09/14 03:14:25;;;;;;;0.70;0.70;;;;;;;10.44;71.77;100970.16;5105901;28;20079;-67
2023/09/14 03:16:50;;;;;;;1.95;1.00;;;;;;;10.45;71.81;100964.09;5105776;28;20545;-67
2023/09/14 03:19:16;;;;;;;0.70;0.70;;;;;;;10.38;71.78;100952.84;5105630;28;20028;-67
2023/09/14 03:21:41;;;;;;;0.68;0.60;;;;;;;10.49;71.57;100967.59;5105752;28;20031;-67
2023/09/14 03:24:06;;;;;;;1.10;1.00;;;;;;;10.46;71.54;100962.38;5105592;28;20028;-67
2023/09/14 03:26:32;;;;;;;0.95;0.77;;;;;;;10.45;71.43;100963.25;5105609;28;20035;-66
2023/09/14 03:28:57;;;;;;;1.65;1.15;;;;;;;10.45;71.55;100963.25;5105465;28;20070;-68
2023/09/14 03:31:23;;;;;;;1.35;0.95;;;;;;;10.43;71.46;100963.25;5105204;28;20022;-67
2023/09/14 03:33:51;;;;;;;2.53;1.17;;;;;;;10.43;71.67;100970.16;5105627;28;20092;-66
2023/09/14 03:36:16;;;;;;;2.10;1.13;;;;;;;10.36;71.71;100961.50;5105456;28;20104;-65
2023/09/14 03:38:42;;;;;;;1.27;1.08;;;;;;;10.38;71.58;100967.56;5105265;28;20472;-66
2023/09/14 03:41:07;;;;;;;5.63;1.58;;;;;;;10.31;71.15;100969.28;5105141;28;20046;-66
2023/09/14 03:43:33;;;;;;;0.90;0.85;;;;;;;10.22;71.51;100964.06;5105565;28;20024;-66
2023/09/14 03:45:58;;;;;;;0.93;0.90;;;;;;;10.17;71.47;100972.69;5105418;28;20031;-66
2023/09/14 03:48:23;;;;;;;1.23;0.93;;;;;;;10.11;71.54;100977.03;5105154;28;20483;-67
2023/09/14 03:50:49;;;;;;;1.20;0.88;;;;;;;10.04;71.70;100983.91;5105015;28;20024;-67
2023/09/14 03:53:14;;;;;;;1.15;0.80;;;;;;;9.97;72.13;100984.78;5104839;28;20024;-66
2023/09/14 03:55:40;;;;;;;0.73;0.68;;;;;;;9.98;72.91;100976.13;5105150;28;20027;-66
2023/09/14 03:58:05;;;;;;;1.52;1.00;;;;;;;10.03;72.79;100974.41;5105177;28;20049;-66
2023/09/14 04:00:31;;;;;;;2.35;0.98;;;;;;;10.01;72.69;100971.81;5104949;28;20099;-67
2023/09/14 04:02:56;;;;;;;1.20;1.02;;;;;;;10.04;72.45;100973.53;5105312;28;20024;-67
2023/09/14 04:05:22;;;;;;;0.60;0.60;;;;;;;10.00;72.66;100974.41;5105180;28;20422;-66
2023/09/14 04:07:47;;;;;;;1.00;0.90;;;;;;;9.91;72.83;100975.22;5104841;28;20032;-67
2023/09/14 04:10:13;;;;;;;1.58;1.10;;;;;;;9.88;73.02;100978.69;5104929;28;20442;-67
2023/09/14 04:12:40;;;;;;;4.35;1.00;;;;;;;9.86;73.24;100980.41;5086774;28;20024;-73
2023/09/14 04:15:06;;;;;;;1.10;0.73;;;;;;;9.90;73.55;100986.47;5104859;28;20021;-67
2023/09/14 04:17:32;;;;;;;7.35;1.95;;;;;;;9.89;73.38;100984.72;5105058;28;20026;-68
2023/09/14 04:19:58;;;;;;;1.42;1.33;;;;;;;9.88;73.51;100985.59;5103447;28;20013;-67
2023/09/14 04:22:23;;;;;;;2.15;1.42;;;;;;;9.87;73.71;100979.53;5086509;28;20027;-67
2023/09/14 04:24:49;;;;;;;1.38;1.10;;;;;;;9.96;75.03;100985.59;5104949;28;20016;-67
2023/09/14 04:27:15;;;;;;;0.60;0.60;;;;;;;10.03;75.86;100993.41;5105056;28;20024;-68
2023/09/14 04:29:41;;;;;;;0.93;0.88;;;;;;;10.07;76.36;100981.31;5108416;28;20054;-68
2023/09/14 04:32:06;;;;;;;0.85;0.75;;;;;;;10.16;76.68;100975.28;5108916;28;20028;-67
2023/09/14 04:34:32;;;;;;;1.55;1.08;;;;;;;10.27;76.93;100983.13;5109030;28;20490;-68
2023/09/14 04:36:57;;;;;;;0.70;0.70;;;;;;;10.33;76.66;100993.50;5108938;28;20393;-68
2023/09/14 04:39:22;;;;;;;3.90;0.75;;;;;;;10.35;76.06;100996.94;5108811;28;20462;-68
2023/09/14 04:41:49;;;;;;;1.45;0.90;;;;;;;10.32;75.76;100989.16;5108535;28;20044;-66
2023/09/14 04:44:14;;;;;;;1.50;0.90;;;;;;;10.30;75.57;100983.13;5090403;28;20024;-67
2023/09/14 04:46:39;;;;;;;1.77;0.90;;;;;;;10.24;75.48;100994.34;5090433;28;20043;-67
2023/09/14 04:49:05;;;;;;;2.40;1.25;;;;;;;10.17;76.22;100995.19;5108695;28;20031;-66
2023/09/14 04:51:30;;;;;;;0.68;0.63;;;;;;;10.15;77.40;100997.78;5108385;28;20020;-66
2023/09/14 04:53:55;;;;;;;1.20;1.08;;;;;;;10.15;78.31;100992.59;5107846;28;20044;-68
2023/09/14 04:56:21;;;;;;;2.08;1.75;;;;;;;10.15;78.88;100976.16;5090373;28;20037;-67
2023/09/14 04:58:46;;;;;;;2.42;0.93;;;;;;;10.23;79.55;100982.25;5108496;28;20083;-67
2023/09/14 05:01:11;;;;;;;1.05;0.77;;;;;;;10.33;80.13;100977.06;5107115;28;20507;-67
2023/09/14 05:03:39;;;;;;;0.77;0.70;;;;;;;10.49;80.45;100980.59;5108385;28;20024;-67
2023/09/14 05:06:04;;;;;;;0.88;0.75;;;;;;;10.62;80.75;100979.72;5108174;28;20026;-67
2023/09/14 05:08:30;;;;;;;1.23;1.13;;;;;;;10.77;81.23;100978.00;5108182;28;20088;-68
2023/09/14 05:10:56;;;;;;;1.25;1.20;;;;;;;10.96;81.44;100965.88;5108158;28;20407;-68
2023/09/14 05:13:22;;;;;;;0.40;0.40;;;;;;;11.22;81.55;100974.50;5108370;28;20074;-67
2023/09/14 05:15:48;;;;;;;2.78;1.52;;;;;;;11.45;82.30;100978.78;5108159;28;20131;-67
2023/09/14 05:18:14;;;;;;;1.65;0.75;;;;;;;11.87;82.24;100982.06;5108398;28;20028;-67
2023/09/14 05:20:43;;;;;;;1.13;1.02;;;;;;;12.17;81.30;100984.59;5108014;28;20016;-69
2023/09/14 05:23:08;;;;;;;2.25;0.88;;;;;;;12.49;81.10;100990.47;5107751;28;20023;-68
2023/09/14 05:25:34;;;;;;;1.95;1.30;;;;;;;12.91;81.41;101000.53;5107777;28;20040;-68
2023/09/14 05:27:59;;;;;;;1.63;1.00;;;;;;;13.31;80.62;101004.50;5108028;28;20024;-66
2023/09/14 05:30:25;;;;;;;0.50;0.50;;;;;;;13.73;79.71;101011.03;5089490;28;20031;-67
2023/09/14 05:32:50;;;;;;;1.58;1.27;;;;;;;13.81;77.50;100997.91;5108001;28;20024;-68
2023/09/14 05:35:16;;;;;;;0.70;0.70;;;;;;;13.79;75.99;100999.66;5108032;28;20055;-67
2023/09/14 05:37:41;;;;;;;1.55;0.95;;;;;;;13.69;75.29;101011.97;5107530;28;20030;-68
2023/09/14 05:40:09;;;;;;;2.67;0.82;;;;;;;13.46;74.51;100994.78;5106652;28;20019;-67
2023/09/14 05:42:37;;;;;;;1.10;1.00;;;;;;;13.31;74.21;101007.13;5107817;28;20031;-68
2023/09/14 05:45:06;;;;;;;1.52;1.00;;;;;;;12.98;74.02;100991.81;5089515;28;20043;-67
2023/09/14 05:47:32;;;;;;;1.38;0.88;;;;;;;12.84;73.97;101015.34;5107742;28;20020;-68
2023/09/14 05:49:57;;;;;;;0.73;0.70;;;;;;;12.62;74.35;101007.72;5107518;28;20035;-67
2023/09/14 05:52:23;;;;;;;1.42;0.88;;;;;;;12.49;74.72;101011.28;5107433;28;20020;-67
2023/09/14 05:54:49;;;;;;;1.08;0.88;;;;;;;12.42;75.10;101018.28;5107354;28;20389;-67
2023/09/14 05:57:14;;;;;;;2.17;0.75;;;;;;;12.37;75.10;101013.09;5107520;28;20024;-68
2023/09/14 05:59:42;;;;;;;1.17;0.82;;;;;;;12.35;75.08;101027.84;5107122;28;20024;-68
2023/09/14 06:02:08;;;;;;;1.33;1.00;;;;;;;12.30;75.18;101029.59;5107267;28;20032;-67
2023/09/14 06:04:34;;;;;;;1.17;0.82;;;;;;;12.25;75.71;101023.59;5107593;28;20037;-67
2023/09/14 06:07:00;;;;;;;2.60;1.63;;;;;;;12.20;75.76;101018.41;5107319;28;20035;-68
2023/09/14 06:09:29;;;;;;;1.75;0.88;;;;;;;12.21;75.70;101033.13;5107090;28;20047;-72
2023/09/14 06:11:55;;;;;;;0.93;0.70;;;;;;;12.24;76.51;101037.44;5088899;28;20068;-68
2023/09/14 06:14:21;;;;;;;3.42;1.30;;;;;;;12.33;76.59;101050.41;5088918;28;20031;-69
2023/09/14 06:16:46;;;;;;;2.03;1.23;;;;;;;12.30;76.39;101041.78;5107061;28;20027;-66
2023/09/14 06:19:12;;;;;;;1.05;0.88;;;;;;;12.31;76.31;101046.97;5107030;28;20024;-66
2023/09/14 06:21:37;;;;;;;5.03;1.40;;;;;;;12.25;76.09;101049.63;5088657;28;20016;-67
2023/09/14 06:24:03;;;;;;;1.02;0.88;;;;;;;12.22;76.52;101052.22;5106864;28;20110;-67
2023/09/14 06:26:29;;;;;;;0.77;0.68;;;;;;;12.17;76.59;101043.56;5106969;28;20052;-67
2023/09/14 06:28:55;;;;;;;1.33;0.70;;;;;;;12.11;76.81;101039.25;5107037;28;20162;-67
2023/09/14 06:31:22;;;;;;;1.90;0.93;;;;;;;12.13;76.93;101040.13;5106934;28;20024;-66
2023/09/14 06:33:49;;;;;;;1.23;0.90;;;;;;;12.08;77.31;101040.13;5106961;28;20024;-67
2023/09/14 06:36:14;;;;;;;1.58;0.80;;;;;;;12.09;77.50;101041.00;5106704;28;20027;-66
2023/09/14 06:38:40;;;;;;;1.20;0.80;;;;;;;12.08;77.49;101039.25;5106505;28;20083;-66
2023/09/14 06:41:06;;;;;;;0.85;0.68;;;;;;;12.05;77.63;101041.84;5106474;28;20048;-66
2023/09/14 06:43:32;;;;;;;0.50;0.50;;;;;;;12.02;77.99;101040.13;5106772;28;20452;-66
2023/09/14 06:45:57;;;;;;;0.77;0.70;;;;;;;11.92;78.32;101044.50;5106629;28;20035;-65
2023/09/14 06:48:22;;;;;;;1.50;0.98;;;;;;;11.88;78.62;101051.47;5106715;28;20024;-66
2023/09/14 06:50:48;;;;;;;0.60;0.60;;;;;;;11.88;78.88;101055.81;5106144;28;20027;-67
2023/09/14 06:53:13;;;;;;;0.43;0.43;;;;;;;11.89;79.16;101065.31;5106280;28;20020;-68
2023/09/14 06:55:39;;;;;;;1.23;1.13;;;;;;;11.85;79.68;101054.06;5106606;28;20073;-67
2023/09/14 06:58:06;;;;;;;0.85;0.68;;;;;;;11.86;79.74;101062.75;5106692;28;20027;-67
2023/09/14 07:00:32;;;;;;;1.00;0.82;;;;;;;11.93;79.96;101067.06;5106140;28;20069;-67
2023/09/14 07:02:58;;;;;;;1.67;1.13;;;;;;;11.95;79.97;101075.72;5106515;28;20024;-67
2023/09/14 07:05:24;;;;;;;0.70;0.70;;;;;;;11.99;80.16;101071.38;5106362;28;20028;-66
2023/09/14 07:07:49;;;;;;;2.03;0.98;;;;;;;12.10;80.40;101076.56;5106179;28;20028;-66
2023/09/14 07:10:14;;;;;;;1.10;1.02;;;;;;;12.20;80.07;101070.47;5106109;28;20024;-67
2023/09/14 07:12:40;;;;;;;1.13;0.95;;;;;;;12.26;79.97;101061.75;5106338;28;20165;-67
2023/09/14 07:15:06;;;;;;;0.85;0.65;;;;;;;12.26;80.26;101061.75;5106043;28;20058;-67
2023/09/14 07:17:31;;;;;;;0.80;0.60;;;;;;;12.37;80.42;101078.19;5106092;28;20024;-66
2023/09/14 07:19:57;;;;;;;0.70;0.60;;;;;;;12.49;80.19;101068.59;5087618;28;20106;-67
2023/09/14 07:22:22;;;;;;;1.17;0.82;;;;;;;12.50;80.38;101055.56;5105571;28;20416;-67
2023/09/14 07:24:47;;;;;;;1.50;1.40;;;;;;;12.63;80.06;101063.28;5105965;28;20020;-67
2023/09/14 07:27:14;;;;;;;1.27;1.00;;;;;;;12.70;79.98;101066.72;5106007;28;20619;-67
2023/09/14 07:29:40;;;;;;;0.63;0.45;;;;;;;12.74;80.19;101065.81;5105811;28;20077;-67
2023/09/14 07:32:06;;;;;;;1.35;1.05;;;;;;;12.80;80.11;101070.97;5105612;28;20032;-66
2023/09/14 07:34:31;;;;;;;2.25;1.05;;;;;;;12.96;80.09;101070.84;5105921;28;20024;-66
2023/09/14 07:36:56;;;;;;;1.52;0.93;;;;;;;13.14;79.98;101069.84;5105714;28;20357;-66
2023/09/14 07:39:22;;;;;;;0.73;0.73;;;;;;;13.23;79.46;101054.13;5105592;28;20028;-66
2023/09/14 07:41:47;;;;;;;0.95;0.88;;;;;;;13.31;79.18;101055.78;5087375;28;20408;-66
2023/09/14 07:44:12;;;;;;;1.00;0.70;;;;;;;13.42;78.86;101063.53;5105499;28;20020;-66
2023/09/14 07:46:39;;;;;;;1.10;0.82;;;;;;;13.56;78.67;101066.88;5105527;28;20050;-66
2023/09/14 07:49:05;;;;;;;0.80;0.73;;;;;;;13.69;78.28;101061.56;5105321;28;20020;-67
2023/09/14 07:51:30;;;;;;;2.28;1.52;;;;;;;13.86;77.93;101063.97;5105481;28;20504;-67
2023/09/14 07:53:56;;;;;;;1.25;0.80;;;;;;;13.97;77.74;101059.50;5104975;28;20066;-66
2023/09/14 07:56:22;;;;;;;1.52;1.02;;;;;;;14.18;77.65;101065.31;5105384;28;20024;-67
2023/09/14 07:58:47;;;;;;;1.75;0.85;;;;;;;14.40;77.34;101080.69;5105685;28;20027;-67
2023/09/14 08:01:13;;;;;;;1.48;0.98;;;;;;;14.55;76.94;101084.88;5105498;28;20535;-67
2023/09/14 08:03:38;;;;;;;5.70;0.73;;;;;;;14.69;76.46;101087.28;5104713;28;20028;-66
2023/09/14 08:06:04;;;;;;;1.27;0.75;;;;;;;14.81;75.71;101074.94;5105237;28;20027;-66
2023/09/14 08:08:29;;;;;;;1.00;0.52;;;;;;;14.87;75.56;101067.84;5105244;28;20020;-67
2023/09/14 08:10:55;;;;;;;2.17;1.25;;;;;;;14.94;74.39;101070.34;5105166;28;20083;-67
2023/09/14 08:13:21;;;;;;;2.25;0.95;;;;;;;14.94;74.68;101070.34;5105449;28;20020;-66
2023/09/14 08:15:47;;;;;;;0.55;0.55;;;;;;;14.98;74.72;101067.66;5105341;28;20082;-66
2023/09/14 08:18:12;;;;;;;1.02;0.93;;;;;;;15.13;74.51;101075.31;5105351;28;20051;-67
2023/09/14 08:20:38;;;;;;;0.80;0.80;;;;;;;15.22;73.08;101078.59;5105262;28;20023;-66
2023/09/14 08:23:04;;;;;;;0.85;0.75;;;;;;;15.13;73.52;101096.22;5105206;28;20024;-67
2023/09/14 08:25:29;;;;;;;1.00;0.90;;;;;;;15.16;73.74;101090.94;5105227;28;20020;-67
2023/09/14 08:27:56;;;;;;;2.20;0.93;;;;;;;15.27;73.61;101093.38;5105212;28;20088;-66
2023/09/14 08:30:22;;;;;;;1.05;0.77;;;;;;;15.47;74.13;101090.41;5086849;28;20031;-66
2023/09/14 08:32:48;;;;;;;0.95;0.85;;;;;;;15.80;72.85;101090.66;5087116;28;20031;-66
2023/09/14 08:35:24;;;;;;;0.93;0.65;;;;;;;15.84;71.67;101088.84;5105375;28;20053;-66
2023/09/14 08:37:52;;;;;;;3.78;0.85;;;;;;;15.95;71.34;101097.38;5104893;28;20472;-66
2023/09/14 08:40:18;;;;;;;1.38;0.80;;;;;;;15.95;71.82;101091.25;5105088;28;20027;-66
2023/09/14 08:42:50;;;;;;;1.02;0.90;;;;;;;15.95;71.81;101089.50;5105211;28;20099;-66
2023/09/14 08:45:22;;;;;;;1.27;1.17;;;;;;;15.93;71.44;101088.66;5086846;28;20019;-67
2023/09/14 08:47:49;;;;;;;2.40;1.33;;;;;;;15.91;71.28;101097.47;5086642;28;20024;-66
2023/09/14 08:50:18;;;;;;;1.15;0.90;;;;;;;15.89;71.67;101099.22;5105182;28;20035;-67
2023/09/14 08:52:44;;;;;;;0.65;0.60;;;;;;;16.03;71.91;101104.22;5104677;28;20073;-66
2023/09/14 08:55:11;;;;;;;0.82;0.73;;;;;;;16.00;71.25;101089.44;5104734;28;20050;-66
2023/09/14 08:57:39;;;;;;;0.90;0.80;;;;;;;15.92;71.55;101086.06;5104895;28;20023;-66
2023/09/14 09:00:14;;;;;;;1.27;0.77;;;;;;;15.98;71.35;101080.75;5086562;28;20038;-66
2023/09/14 09:02:50;;;;;;;1.73;1.05;;;;;;;16.02;70.42;101071.94;5104880;28;20024;-66
2023/09/14 09:05:16;;;;;;;0.90;0.70;;;;;;;15.91;70.08;101072.09;5104853;28;20046;-68
2023/09/14 09:07:43;;;;;;;1.38;0.77;;;;;;;15.74;70.53;101077.69;5104596;28;20016;-66
2023/09/14 09:10:14;;;;;;;1.40;1.13;;;;;;;15.59;71.13;101065.78;5104819;28;20091;-66
2023/09/14 09:12:40;;;;;;;1.40;0.95;;;;;;;15.54;71.38;101073.72;5105021;28;20089;-67
2023/09/14 09:15:07;;;;;;;1.52;0.90;;;;;;;15.58;71.94;101083.22;5107039;28;20524;-66
2023/09/14 09:17:38;;;;;;;1.15;0.88;;;;;;;15.66;71.95;101082.19;5090829;28;20038;-66
2023/09/14 09:20:13;;;;;;;1.42;0.93;;;;;;;15.79;71.86;101091.56;5090307;28;20016;-66
2023/09/14 09:22:41;;;;;;;1.48;0.95;;;;;;;15.90;72.07;101091.34;5090146;28;20087;-66
2023/09/14 09:25:06;;;;;;;2.03;0.77;;;;;;;16.13;72.43;101091.81;5108263;28;20023;-66
2023/09/14 09:27:32;;;;;;;3.35;1.30;;;;;;;16.39;72.57;101088.63;5108228;28;20028;-66
2023/09/14 09:30:01;;;;;;;0.98;0.70;;;;;;;16.58;72.24;101078.59;5107897;28;20024;-66
2023/09/14 09:32:26;;;;;;;1.13;0.70;;;;;;;16.71;71.19;101083.53;5107900;28;20024;-66
2023/09/14 09:34:51;;;;;;;0.73;0.60;;;;;;;16.64;71.53;101097.69;5108220;28;20093;-66
2023/09/14 09:37:17;;;;;;;1.55;0.98;;;;;;;16.64;71.60;101102.94;5108017;28;20047;-66
2023/09/14 09:39:44;;;;;;;0.68;0.63;;;;;;;16.64;71.89;101106.44;5107920;28;20035;-66
2023/09/14 09:42:12;;;;;;;0.90;0.68;;;;;;;16.68;71.71;101109.81;5089703;28;20028;-66
2023/09/14 09:44:39;;;;;;;1.48;1.08;;;;;;;16.73;71.89;101118.47;5108066;28;20110;-66
2023/09/14 09:47:04;;;;;;;1.83;1.02;;;;;;;16.75;71.31;101105.31;5089847;28;20016;-66
2023/09/14 09:49:31;;;;;;;1.23;0.80;;;;;;;16.65;71.10;101099.41;5107832;28;20034;-66
2023/09/14 09:51:57;;;;;;;1.98;0.82;;;;;;;16.59;71.06;101103.03;5089407;28;20105;-67
2023/09/14 09:54:27;;;;;;;0.88;0.80;;;;;;;16.51;71.36;101103.22;5089324;28;20067;-66
2023/09/14 09:56:53;;;;;;;0.85;0.70;;;;;;;16.51;71.74;101111.09;5107793;28;20412;-66
2023/09/14 09:59:19;;;;;;;1.92;0.85;;;;;;;16.65;71.73;101118.63;5089508;28;20016;-66
2023/09/14 10:01:46;;;;;;;0.85;0.77;;;;;;;16.81;72.21;101103.41;5107541;28;20390;-66
2023/09/14 10:04:13;;;;;;;2.15;1.17;;;;;;;16.96;71.63;101091.69;5107603;28;20039;-66
2023/09/14 10:06:40;;;;;;;0.70;0.65;;;;;;;16.93;70.31;101093.53;5107460;28;20027;-66
2023/09/14 10:09:11;;;;;;;0.57;0.55;;;;;;;16.87;69.95;101101.56;5107226;28;20055;-66
2023/09/14 10:11:37;;;;;;;1.05;0.90;;;;;;;16.82;70.46;101086.78;5088852;28;20401;-67
2023/09/14 10:14:04;;;;;;;1.17;0.90;;;;;;;16.75;69.58;101079.97;5107494;28;20028;-65
2023/09/14 10:16:40;;;;;;;0.88;0.88;;;;;;;16.60;69.78;101074.19;5107327;28;20046;-66
2023/09/14 10:19:06;;;;;;;1.17;0.85;;;;;;;16.57;69.46;101099.59;5107391;28;20110;-66
2023/09/14 10:21:32;;;;;;;1.27;0.98;;;;;;;16.59;70.28;101109.16;5106928;28;20080;-66
2023/09/14 10:23:58;;;;;;;3.50;0.90;;;;;;;16.74;70.41;101107.09;5106821;28;20024;-65
2023/09/14 10:26:24;;;;;;;0.77;0.77;;;;;;;16.85;70.25;101104.22;5106392;28;20032;-65
2023/09/14 10:28:50;;;;;;;0.70;0.70;;;;;;;17.04;70.50;101109.00;5106979;28;20123;-65
2023/09/14 10:31:17;;;;;;;1.75;0.70;;;;;;;17.26;69.90;101113.75;5088474;28;20016;-65
2023/09/14 10:33:48;;;;;;;2.15;1.00;;;;;;;17.58;69.88;101102.44;5106905;28;20035;-65
2023/09/14 10:36:15;;;;;;;0.80;0.75;;;;;;;18.16;68.31;101105.25;5088638;28;20034;-65
2023/09/14 10:38:43;;;;;;;0.50;0.50;;;;;;;18.31;67.88;101103.94;5106841;28;20020;-66
2023/09/14 10:41:09;;;;;;;0.77;0.70;;;;;;;18.30;67.14;101096.97;5106784;28;20024;-66
2023/09/14 10:43:34;;;;;;;1.65;1.00;;;;;;;18.36;67.92;101102.03;5106704;28;20044;-65
2023/09/14 10:46:02;;;;;;;0.68;0.63;;;;;;;18.48;67.02;101119.22;5106629;28;20055;-66
2023/09/14 10:48:29;;;;;;;1.05;0.77;;;;;;;18.70;66.86;101119.41;5106828;28;20019;-66
2023/09/14 10:50:59;;;;;;;0.95;0.88;;;;;;;18.96;66.45;101114.22;5106456;28;20088;-66
2023/09/14 10:53:24;;;;;;;0.65;0.65;;;;;;;18.97;67.06;101117.72;5106243;28;20048;-65
2023/09/14 10:55:50;;;;;;;1.42;0.85;;;;;;;18.98;67.03;101122.91;5106589;28;20035;-65
2023/09/14 10:58:16;;;;;;;0.70;0.47;;;;;;;18.92;67.48;101129.25;5106521;28;20031;-66
2023/09/14 11:00:45;;;;;;;0.90;0.70;;;;;;;18.86;67.21;101125.94;5106444;28;20034;-66
2023/09/14 11:03:12;;;;;;;0.45;0.43;;;;;;;18.66;65.87;101127.41;5106422;28;20050;-66
2023/09/14 11:05:40;;;;;;;0.60;0.50;;;;;;;18.57;65.80;101120.69;5088077;28;20035;-65
2023/09/14 11:08:05;;;;;;;1.42;0.75;;;;;;;18.36;65.02;101107.28;5106155;28;20134;-65
2023/09/14 11:10:31;;;;;;;1.85;0.95;;;;;;;18.06;65.84;101116.00;5106309;28;20453;-66
2023/09/14 11:13:18;;;;;;;1.27;0.95;;;;;;;17.79;65.44;101118.50;5106247;28;20100;-66
2023/09/14 11:15:46;;;;;;;1.05;0.77;;;;;;;17.54;65.88;101124.41;5087838;28;20435;-66
2023/09/14 11:18:16;;;;;;;0.73;0.70;;;;;;;17.33;65.73;101115.34;5106139;28;20041;-66
2023/09/14 11:20:44;;;;;;;0.63;0.60;;;;;;;17.19;65.79;101119.16;5106359;28;20024;-66
2023/09/14 11:23:10;;;;;;;1.10;0.80;;;;;;;17.02;66.31;101134.41;5105680;28;20023;-66